sensor_id;sensor_type;location;lat;lon;timestamp;P1;durP1;ratioP1;P2;durP2;ratioP2
61322;SDS011;47203;48.428;11.974;2023-04-29T00:01:12;1.67;;;1.25;;
61322;SDS011;47203;48.428;11.974;2023-04-29T00:03:19;1.35;;;0.90;;
61322;SDS011;47203;48.428;11.974;2023-04-29T00:05:24;1.08;;;0.98;;
61322;SDS011;47203;48.428;11.974;2023-04-29T00:07:30;1.90;;;1.02;;
61322;SDS011;47203;48.428;11.974;2023-04-29T00:09:35;1.52;;;0.95;;
61322;SDS011;47203;48.428;11.974;2023-04-29T00:11:40;2.10;;;1.00;;
61322;SDS011;47203;48.428;11.974;2023-04-29T00:13:45;2.47;;;1.25;;
61322;SDS011;47203;48.428;11.974;2023-04-29T00:15:50;1.90;;;1.20;;
61322;SDS011;47203;48.428;11.974;2023-04-29T00:17:55;1.48;;;1.02;;
61322;SDS011;47203;48.428;11.974;2023-04-29T00:20:03;1.30;;;0.93;;
61322;SDS011;47203;48.428;11.974;2023-04-29T00:22:09;1.05;;;0.90;;
61322;SDS011;47203;48.428;11.974;2023-04-29T00:24:14;1.52;;;1.00;;
61322;SDS011;47203;48.428;11.974;2023-04-29T00:26:19;2.63;;;1.15;;
61322;SDS011;47203;48.428;11.974;2023-04-29T00:28:24;1.25;;;1.02;;
61322;SDS011;47203;48.428;11.974;2023-04-29T00:30:29;3.13;;;0.98;;
61322;SDS011;47203;48.428;11.974;2023-04-29T00:32:35;1.50;;;0.98;;
61322;SDS011;47203;48.428;11.974;2023-04-29T00:34:40;1.35;;;0.80;;
61322;SDS011;47203;48.428;11.974;2023-04-29T00:36:47;1.27;;;1.02;;
61322;SDS011;47203;48.428;11.974;2023-04-29T00:38:52;1.50;;;0.90;;
61322;SDS011;47203;48.428;11.974;2023-04-29T00:40:58;1.13;;;1.02;;
61322;SDS011;47203;48.428;11.974;2023-04-29T00:43:03;0.85;;;0.60;;
61322;SDS011;47203;48.428;11.974;2023-04-29T00:45:08;2.25;;;0.73;;
61322;SDS011;47203;48.428;11.974;2023-04-29T00:47:14;0.93;;;0.73;;
61322;SDS011;47203;48.428;11.974;2023-04-29T00:49:19;2.65;;;1.27;;
61322;SDS011;47203;48.428;11.974;2023-04-29T00:51:24;1.02;;;0.60;;
61322;SDS011;47203;48.428;11.974;2023-04-29T00:53:32;1.60;;;0.85;;
61322;SDS011;47203;48.428;11.974;2023-04-29T00:55:38;1.08;;;0.73;;
61322;SDS011;47203;48.428;11.974;2023-04-29T00:57:44;1.42;;;0.85;;
61322;SDS011;47203;48.428;11.974;2023-04-29T00:59:53;1.02;;;0.70;;
61322;SDS011;47203;48.428;11.974;2023-04-29T01:01:59;0.60;;;0.60;;
61322;SDS011;47203;48.428;11.974;2023-04-29T01:04:05;1.00;;;0.70;;
61322;SDS011;47203;48.428;11.974;2023-04-29T01:06:12;0.95;;;0.68;;
61322;SDS011;47203;48.428;11.974;2023-04-29T01:08:35;1.30;;;0.80;;
61322;SDS011;47203;48.428;11.974;2023-04-29T01:10:56;0.70;;;0.70;;
61322;SDS011;47203;48.428;11.974;2023-04-29T01:13:13;0.50;;;0.50;;
61322;SDS011;47203;48.428;11.974;2023-04-29T01:15:28;0.95;;;0.73;;
61322;SDS011;47203;48.428;11.974;2023-04-29T01:17:38;0.98;;;0.50;;
61322;SDS011;47203;48.428;11.974;2023-04-29T01:19:48;1.02;;;0.60;;
61322;SDS011;47203;48.428;11.974;2023-04-29T01:21:56;1.88;;;0.52;;
61322;SDS011;47203;48.428;11.974;2023-04-29T01:24:04;1.63;;;0.75;;
61322;SDS011;47203;48.428;11.974;2023-04-29T01:26:09;0.50;;;0.50;;
61322;SDS011;47203;48.428;11.974;2023-04-29T01:28:49;0.98;;;0.60;;
61322;SDS011;47203;48.428;11.974;2023-04-29T01:30:59;0.90;;;0.63;;
61322;SDS011;47203;48.428;11.974;2023-04-29T01:33:13;0.80;;;0.75;;
61322;SDS011;47203;48.428;11.974;2023-04-29T01:35:26;3.60;;;0.55;;
61322;SDS011;47203;48.428;11.974;2023-04-29T01:37:44;1.48;;;0.50;;
61322;SDS011;47203;48.428;11.974;2023-04-29T01:40:03;0.82;;;0.63;;
61322;SDS011;47203;48.428;11.974;2023-04-29T01:42:21;0.70;;;0.50;;
61322;SDS011;47203;48.428;11.974;2023-04-29T01:44:29;0.63;;;0.50;;
61322;SDS011;47203;48.428;11.974;2023-04-29T01:46:36;1.20;;;0.73;;
61322;SDS011;47203;48.428;11.974;2023-04-29T01:48:42;2.05;;;0.90;;
61322;SDS011;47203;48.428;11.974;2023-04-29T01:50:47;0.98;;;0.50;;
61322;SDS011;47203;48.428;11.974;2023-04-29T01:52:52;0.70;;;0.50;;
61322;SDS011;47203;48.428;11.974;2023-04-29T01:54:57;1.60;;;0.88;;
61322;SDS011;47203;48.428;11.974;2023-04-29T01:57:14;1.85;;;0.77;;
61322;SDS011;47203;48.428;11.974;2023-04-29T01:59:55;1.00;;;0.47;;
61322;SDS011;47203;48.428;11.974;2023-04-29T02:02:21;1.05;;;0.70;;
61322;SDS011;47203;48.428;11.974;2023-04-29T02:04:37;1.50;;;0.70;;
61322;SDS011;47203;48.428;11.974;2023-04-29T02:06:42;1.27;;;0.52;;
61322;SDS011;47203;48.428;11.974;2023-04-29T02:08:47;1.33;;;0.57;;
61322;SDS011;47203;48.428;11.974;2023-04-29T02:10:53;1.05;;;0.80;;
61322;SDS011;47203;48.428;11.974;2023-04-29T02:13:20;1.27;;;0.88;;
61322;SDS011;47203;48.428;11.974;2023-04-29T02:15:25;1.08;;;0.80;;
61322;SDS011;47203;48.428;11.974;2023-04-29T02:17:32;0.80;;;0.60;;
61322;SDS011;47203;48.428;11.974;2023-04-29T02:19:37;1.00;;;0.70;;
61322;SDS011;47203;48.428;11.974;2023-04-29T02:21:42;0.60;;;0.50;;
61322;SDS011;47203;48.428;11.974;2023-04-29T02:23:47;1.25;;;0.68;;
61322;SDS011;47203;48.428;11.974;2023-04-29T02:25:52;0.65;;;0.50;;
61322;SDS011;47203;48.428;11.974;2023-04-29T02:27:58;1.15;;;0.50;;
61322;SDS011;47203;48.428;11.974;2023-04-29T02:30:06;0.95;;;0.65;;
61322;SDS011;47203;48.428;11.974;2023-04-29T02:32:13;0.82;;;0.60;;
61322;SDS011;47203;48.428;11.974;2023-04-29T02:34:20;0.65;;;0.43;;
61322;SDS011;47203;48.428;11.974;2023-04-29T02:36:27;1.88;;;1.00;;
61322;SDS011;47203;48.428;11.974;2023-04-29T02:38:32;0.77;;;0.60;;
61322;SDS011;47203;48.428;11.974;2023-04-29T02:40:39;0.73;;;0.47;;
61322;SDS011;47203;48.428;11.974;2023-04-29T02:42:45;1.17;;;0.47;;
61322;SDS011;47203;48.428;11.974;2023-04-29T02:44:50;1.55;;;0.80;;
61322;SDS011;47203;48.428;11.974;2023-04-29T02:46:58;2.95;;;0.60;;
61322;SDS011;47203;48.428;11.974;2023-04-29T02:49:03;1.63;;;0.73;;
61322;SDS011;47203;48.428;11.974;2023-04-29T02:51:08;1.15;;;0.70;;
61322;SDS011;47203;48.428;11.974;2023-04-29T02:53:14;1.27;;;0.60;;
61322;SDS011;47203;48.428;11.974;2023-04-29T02:55:19;2.40;;;1.20;;
61322;SDS011;47203;48.428;11.974;2023-04-29T02:57:24;1.50;;;0.75;;
61322;SDS011;47203;48.428;11.974;2023-04-29T02:59:30;1.10;;;0.70;;
61322;SDS011;47203;48.428;11.974;2023-04-29T03:01:35;1.77;;;0.73;;
61322;SDS011;47203;48.428;11.974;2023-04-29T03:03:43;0.82;;;0.82;;
61322;SDS011;47203;48.428;11.974;2023-04-29T03:05:51;0.77;;;0.70;;
61322;SDS011;47203;48.428;11.974;2023-04-29T03:07:56;1.73;;;1.00;;
61322;SDS011;47203;48.428;11.974;2023-04-29T03:10:02;1.25;;;0.80;;
61322;SDS011;47203;48.428;11.974;2023-04-29T03:12:09;1.25;;;0.80;;
61322;SDS011;47203;48.428;11.974;2023-04-29T03:14:14;1.08;;;0.90;;
61322;SDS011;47203;48.428;11.974;2023-04-29T03:16:21;1.92;;;1.00;;
61322;SDS011;47203;48.428;11.974;2023-04-29T03:18:26;0.80;;;0.60;;
61322;SDS011;47203;48.428;11.974;2023-04-29T03:20:33;1.50;;;1.00;;
61322;SDS011;47203;48.428;11.974;2023-04-29T03:22:38;1.83;;;1.00;;
61322;SDS011;47203;48.428;11.974;2023-04-29T03:24:44;1.08;;;0.90;;
61322;SDS011;47203;48.428;11.974;2023-04-29T03:26:49;1.10;;;0.82;;
61322;SDS011;47203;48.428;11.974;2023-04-29T03:28:54;0.85;;;0.70;;
61322;SDS011;47203;48.428;11.974;2023-04-29T03:31:00;0.73;;;0.70;;
61322;SDS011;47203;48.428;11.974;2023-04-29T03:33:05;1.25;;;0.80;;
61322;SDS011;47203;48.428;11.974;2023-04-29T03:35:11;1.55;;;0.90;;
61322;SDS011;47203;48.428;11.974;2023-04-29T03:37:39;1.08;;;0.85;;
61322;SDS011;47203;48.428;11.974;2023-04-29T03:39:55;1.17;;;1.08;;
61322;SDS011;47203;48.428;11.974;2023-04-29T03:42:01;1.08;;;0.98;;
61322;SDS011;47203;48.428;11.974;2023-04-29T03:44:07;2.17;;;0.93;;
61322;SDS011;47203;48.428;11.974;2023-04-29T03:46:13;1.73;;;1.13;;
61322;SDS011;47203;48.428;11.974;2023-04-29T03:48:21;1.10;;;0.70;;
61322;SDS011;47203;48.428;11.974;2023-04-29T03:50:26;1.13;;;0.90;;
61322;SDS011;47203;48.428;11.974;2023-04-29T03:52:31;1.38;;;1.10;;
61322;SDS011;47203;48.428;11.974;2023-04-29T03:54:45;2.17;;;1.05;;
61322;SDS011;47203;48.428;11.974;2023-04-29T03:56:50;1.30;;;1.20;;
61322;SDS011;47203;48.428;11.974;2023-04-29T03:58:57;2.47;;;1.35;;
61322;SDS011;47203;48.428;11.974;2023-04-29T04:01:02;3.65;;;2.67;;
61322;SDS011;47203;48.428;11.974;2023-04-29T04:03:14;3.70;;;2.35;;
61322;SDS011;47203;48.428;11.974;2023-04-29T04:05:20;4.25;;;2.17;;
61322;SDS011;47203;48.428;11.974;2023-04-29T04:07:33;3.80;;;1.90;;
61322;SDS011;47203;48.428;11.974;2023-04-29T04:10:08;2.30;;;1.50;;
61322;SDS011;47203;48.428;11.974;2023-04-29T04:12:14;2.30;;;1.90;;
61322;SDS011;47203;48.428;11.974;2023-04-29T04:14:19;2.78;;;2.03;;
61322;SDS011;47203;48.428;11.974;2023-04-29T04:16:24;2.45;;;1.33;;
61322;SDS011;47203;48.428;11.974;2023-04-29T04:18:29;1.92;;;1.38;;
61322;SDS011;47203;48.428;11.974;2023-04-29T04:20:35;2.13;;;1.60;;
61322;SDS011;47203;48.428;11.974;2023-04-29T04:22:41;2.65;;;1.30;;
61322;SDS011;47203;48.428;11.974;2023-04-29T04:24:53;2.08;;;1.20;;
61322;SDS011;47203;48.428;11.974;2023-04-29T04:27:00;1.90;;;1.20;;
61322;SDS011;47203;48.428;11.974;2023-04-29T04:29:10;1.60;;;1.05;;
61322;SDS011;47203;48.428;11.974;2023-04-29T04:31:41;1.80;;;1.17;;
61322;SDS011;47203;48.428;11.974;2023-04-29T04:33:49;1.60;;;1.10;;
61322;SDS011;47203;48.428;11.974;2023-04-29T04:35:55;2.25;;;1.30;;
61322;SDS011;47203;48.428;11.974;2023-04-29T04:38:00;1.80;;;1.27;;
61322;SDS011;47203;48.428;11.974;2023-04-29T04:40:06;1.73;;;1.20;;
61322;SDS011;47203;48.428;11.974;2023-04-29T04:42:35;1.30;;;0.95;;
61322;SDS011;47203;48.428;11.974;2023-04-29T04:44:42;2.55;;;1.13;;
61322;SDS011;47203;48.428;11.974;2023-04-29T04:46:58;1.75;;;1.23;;
61322;SDS011;47203;48.428;11.974;2023-04-29T04:49:14;2.00;;;1.20;;
61322;SDS011;47203;48.428;11.974;2023-04-29T04:51:26;1.55;;;1.13;;
61322;SDS011;47203;48.428;11.974;2023-04-29T04:53:31;2.40;;;1.17;;
61322;SDS011;47203;48.428;11.974;2023-04-29T04:55:41;1.38;;;1.10;;
61322;SDS011;47203;48.428;11.974;2023-04-29T04:57:50;4.35;;;1.33;;
61322;SDS011;47203;48.428;11.974;2023-04-29T04:59:55;1.38;;;1.27;;
61322;SDS011;47203;48.428;11.974;2023-04-29T05:02:07;1.70;;;1.20;;
61322;SDS011;47203;48.428;11.974;2023-04-29T05:04:13;2.75;;;1.50;;
61322;SDS011;47203;48.428;11.974;2023-04-29T05:06:19;1.75;;;1.50;;
61322;SDS011;47203;48.428;11.974;2023-04-29T05:08:25;2.17;;;1.33;;
61322;SDS011;47203;48.428;11.974;2023-04-29T05:10:34;1.95;;;1.52;;
61322;SDS011;47203;48.428;11.974;2023-04-29T05:12:40;2.97;;;1.55;;
61322;SDS011;47203;48.428;11.974;2023-04-29T05:14:48;1.80;;;1.38;;
61322;SDS011;47203;48.428;11.974;2023-04-29T05:16:57;2.28;;;1.63;;
61322;SDS011;47203;48.428;11.974;2023-04-29T05:19:02;1.88;;;1.40;;
61322;SDS011;47203;48.428;11.974;2023-04-29T05:21:11;2.85;;;1.80;;
61322;SDS011;47203;48.428;11.974;2023-04-29T05:23:18;2.78;;;1.77;;
61322;SDS011;47203;48.428;11.974;2023-04-29T05:25:24;2.38;;;1.70;;
61322;SDS011;47203;48.428;11.974;2023-04-29T05:27:30;2.20;;;1.45;;
61322;SDS011;47203;48.428;11.974;2023-04-29T05:29:37;2.17;;;1.35;;
61322;SDS011;47203;48.428;11.974;2023-04-29T05:31:45;1.85;;;1.27;;
61322;SDS011;47203;48.428;11.974;2023-04-29T05:33:51;2.28;;;1.50;;
61322;SDS011;47203;48.428;11.974;2023-04-29T05:35:58;1.95;;;1.33;;
61322;SDS011;47203;48.428;11.974;2023-04-29T05:38:05;2.70;;;1.38;;
61322;SDS011;47203;48.428;11.974;2023-04-29T05:40:13;1.92;;;1.35;;
61322;SDS011;47203;48.428;11.974;2023-04-29T05:42:18;2.47;;;1.90;;
61322;SDS011;47203;48.428;11.974;2023-04-29T05:44:24;3.53;;;1.63;;
61322;SDS011;47203;48.428;11.974;2023-04-29T05:46:29;3.10;;;1.63;;
61322;SDS011;47203;48.428;11.974;2023-04-29T05:48:37;2.72;;;1.27;;
61322;SDS011;47203;48.428;11.974;2023-04-29T05:50:45;2.28;;;1.50;;
61322;SDS011;47203;48.428;11.974;2023-04-29T05:52:50;2.35;;;1.88;;
61322;SDS011;47203;48.428;11.974;2023-04-29T05:54:58;2.75;;;1.67;;
61322;SDS011;47203;48.428;11.974;2023-04-29T05:57:03;2.65;;;1.70;;
61322;SDS011;47203;48.428;11.974;2023-04-29T05:59:08;1.95;;;1.38;;
61322;SDS011;47203;48.428;11.974;2023-04-29T06:01:15;2.13;;;1.60;;
61322;SDS011;47203;48.428;11.974;2023-04-29T06:03:21;1.80;;;1.50;;
61322;SDS011;47203;48.428;11.974;2023-04-29T06:05:41;2.45;;;1.65;;
61322;SDS011;47203;48.428;11.974;2023-04-29T06:08:12;2.13;;;1.65;;
61322;SDS011;47203;48.428;11.974;2023-04-29T06:10:20;2.97;;;1.85;;
61322;SDS011;47203;48.428;11.974;2023-04-29T06:12:25;2.60;;;1.70;;
61322;SDS011;47203;48.428;11.974;2023-04-29T06:14:32;3.08;;;1.83;;
61322;SDS011;47203;48.428;11.974;2023-04-29T06:16:37;2.55;;;1.67;;
61322;SDS011;47203;48.428;11.974;2023-04-29T06:18:43;2.53;;;1.70;;
61322;SDS011;47203;48.428;11.974;2023-04-29T06:20:51;2.35;;;1.75;;
61322;SDS011;47203;48.428;11.974;2023-04-29T06:22:56;2.85;;;2.10;;
61322;SDS011;47203;48.428;11.974;2023-04-29T06:25:02;2.65;;;2.03;;
61322;SDS011;47203;48.428;11.974;2023-04-29T06:27:17;3.10;;;2.00;;
61322;SDS011;47203;48.428;11.974;2023-04-29T06:29:22;3.03;;;2.20;;
61322;SDS011;47203;48.428;11.974;2023-04-29T06:31:27;4.18;;;2.33;;
61322;SDS011;47203;48.428;11.974;2023-04-29T06:33:36;3.70;;;2.50;;
61322;SDS011;47203;48.428;11.974;2023-04-29T06:35:41;3.75;;;2.10;;
61322;SDS011;47203;48.428;11.974;2023-04-29T06:38:14;2.92;;;2.10;;
61322;SDS011;47203;48.428;11.974;2023-04-29T06:40:33;7.40;;;2.85;;
61322;SDS011;47203;48.428;11.974;2023-04-29T06:42:44;2.85;;;2.30;;
61322;SDS011;47203;48.428;11.974;2023-04-29T06:45:11;3.88;;;2.50;;
61322;SDS011;47203;48.428;11.974;2023-04-29T06:47:30;3.45;;;2.40;;
61322;SDS011;47203;48.428;11.974;2023-04-29T06:49:46;6.25;;;2.47;;
61322;SDS011;47203;48.428;11.974;2023-04-29T06:51:51;3.58;;;2.50;;
61322;SDS011;47203;48.428;11.974;2023-04-29T06:54:02;4.55;;;2.70;;
61322;SDS011;47203;48.428;11.974;2023-04-29T06:56:08;4.40;;;2.53;;
61322;SDS011;47203;48.428;11.974;2023-04-29T06:58:13;3.45;;;2.63;;
61322;SDS011;47203;48.428;11.974;2023-04-29T07:00:19;4.07;;;2.60;;
61322;SDS011;47203;48.428;11.974;2023-04-29T07:02:28;5.13;;;2.70;;
61322;SDS011;47203;48.428;11.974;2023-04-29T07:04:33;3.58;;;2.30;;
61322;SDS011;47203;48.428;11.974;2023-04-29T07:06:38;4.28;;;2.63;;
61322;SDS011;47203;48.428;11.974;2023-04-29T07:08:47;3.28;;;2.28;;
61322;SDS011;47203;48.428;11.974;2023-04-29T07:10:58;3.90;;;2.65;;
61322;SDS011;47203;48.428;11.974;2023-04-29T07:13:04;3.53;;;2.83;;
61322;SDS011;47203;48.428;11.974;2023-04-29T07:15:09;4.13;;;2.60;;
61322;SDS011;47203;48.428;11.974;2023-04-29T07:17:14;3.80;;;2.55;;
61322;SDS011;47203;48.428;11.974;2023-04-29T07:19:20;3.90;;;2.95;;
61322;SDS011;47203;48.428;11.974;2023-04-29T07:21:25;3.55;;;2.67;;
61322;SDS011;47203;48.428;11.974;2023-04-29T07:23:31;4.68;;;2.67;;
61322;SDS011;47203;48.428;11.974;2023-04-29T07:25:36;3.30;;;2.30;;
61322;SDS011;47203;48.428;11.974;2023-04-29T07:27:44;5.55;;;2.72;;
61322;SDS011;47203;48.428;11.974;2023-04-29T07:29:49;3.65;;;2.50;;
61322;SDS011;47203;48.428;11.974;2023-04-29T07:31:54;4.47;;;2.75;;
61322;SDS011;47203;48.428;11.974;2023-04-29T07:34:00;4.15;;;2.67;;
61322;SDS011;47203;48.428;11.974;2023-04-29T07:36:05;4.18;;;2.28;;
61322;SDS011;47203;48.428;11.974;2023-04-29T07:38:11;3.53;;;2.55;;
61322;SDS011;47203;48.428;11.974;2023-04-29T07:40:16;3.30;;;2.35;;
61322;SDS011;47203;48.428;11.974;2023-04-29T07:42:21;3.65;;;2.42;;
61322;SDS011;47203;48.428;11.974;2023-04-29T07:44:29;3.67;;;2.97;;
61322;SDS011;47203;48.428;11.974;2023-04-29T07:46:34;3.25;;;2.60;;
61322;SDS011;47203;48.428;11.974;2023-04-29T07:48:39;3.70;;;2.42;;
61322;SDS011;47203;48.428;11.974;2023-04-29T07:50:46;3.55;;;2.42;;
61322;SDS011;47203;48.428;11.974;2023-04-29T07:52:51;3.78;;;2.30;;
61322;SDS011;47203;48.428;11.974;2023-04-29T07:54:58;3.53;;;2.50;;
61322;SDS011;47203;48.428;11.974;2023-04-29T07:57:03;5.20;;;2.50;;
61322;SDS011;47203;48.428;11.974;2023-04-29T07:59:08;2.75;;;2.42;;
61322;SDS011;47203;48.428;11.974;2023-04-29T08:01:15;4.22;;;2.55;;
61322;SDS011;47203;48.428;11.974;2023-04-29T08:03:20;4.03;;;2.35;;
61322;SDS011;47203;48.428;11.974;2023-04-29T08:05:26;3.95;;;2.60;;
61322;SDS011;47203;48.428;11.974;2023-04-29T08:07:32;2.97;;;2.15;;
61322;SDS011;47203;48.428;11.974;2023-04-29T08:09:39;4.50;;;2.85;;
61322;SDS011;47203;48.428;11.974;2023-04-29T08:11:44;4.00;;;2.25;;
61322;SDS011;47203;48.428;11.974;2023-04-29T08:13:49;3.15;;;2.38;;
61322;SDS011;47203;48.428;11.974;2023-04-29T08:15:54;6.03;;;2.78;;
61322;SDS011;47203;48.428;11.974;2023-04-29T08:18:02;3.95;;;3.00;;
61322;SDS011;47203;48.428;11.974;2023-04-29T08:20:07;4.40;;;2.85;;
61322;SDS011;47203;48.428;11.974;2023-04-29T08:22:13;3.97;;;2.63;;
61322;SDS011;47203;48.428;11.974;2023-04-29T08:24:18;5.35;;;2.83;;
61322;SDS011;47203;48.428;11.974;2023-04-29T08:26:24;4.20;;;2.67;;
61322;SDS011;47203;48.428;11.974;2023-04-29T08:28:29;3.58;;;2.53;;
61322;SDS011;47203;48.428;11.974;2023-04-29T08:30:35;3.72;;;2.38;;
61322;SDS011;47203;48.428;11.974;2023-04-29T08:32:41;3.00;;;2.40;;
61322;SDS011;47203;48.428;11.974;2023-04-29T08:34:49;3.10;;;2.25;;
61322;SDS011;47203;48.428;11.974;2023-04-29T08:36:55;2.67;;;2.20;;
61322;SDS011;47203;48.428;11.974;2023-04-29T08:39:00;4.90;;;3.13;;
61322;SDS011;47203;48.428;11.974;2023-04-29T08:41:06;5.38;;;2.92;;
61322;SDS011;47203;48.428;11.974;2023-04-29T08:43:13;3.58;;;3.15;;
61322;SDS011;47203;48.428;11.974;2023-04-29T08:45:18;4.63;;;3.22;;
61322;SDS011;47203;48.428;11.974;2023-04-29T08:47:26;4.88;;;2.72;;
61322;SDS011;47203;48.428;11.974;2023-04-29T08:49:33;2.75;;;2.30;;
61322;SDS011;47203;48.428;11.974;2023-04-29T08:51:41;2.83;;;2.03;;
61322;SDS011;47203;48.428;11.974;2023-04-29T08:53:46;3.97;;;2.65;;
61322;SDS011;47203;48.428;11.974;2023-04-29T08:55:52;3.75;;;2.50;;
61322;SDS011;47203;48.428;11.974;2023-04-29T08:57:58;3.22;;;2.45;;
61322;SDS011;47203;48.428;11.974;2023-04-29T09:00:06;2.78;;;2.20;;
61322;SDS011;47203;48.428;11.974;2023-04-29T09:02:14;3.40;;;2.10;;
61322;SDS011;47203;48.428;11.974;2023-04-29T09:04:26;2.63;;;2.00;;
61322;SDS011;47203;48.428;11.974;2023-04-29T09:06:44;2.85;;;1.67;;
61322;SDS011;47203;48.428;11.974;2023-04-29T09:08:50;3.42;;;1.90;;
61322;SDS011;47203;48.428;11.974;2023-04-29T09:10:54;2.50;;;1.73;;
61322;SDS011;47203;48.428;11.974;2023-04-29T09:13:00;3.28;;;1.65;;
61322;SDS011;47203;48.428;11.974;2023-04-29T09:15:05;2.38;;;1.58;;
61322;SDS011;47203;48.428;11.974;2023-04-29T09:17:11;2.33;;;1.50;;
61322;SDS011;47203;48.428;11.974;2023-04-29T09:19:29;2.92;;;1.50;;
61322;SDS011;47203;48.428;11.974;2023-04-29T09:21:35;3.03;;;1.60;;
61322;SDS011;47203;48.428;11.974;2023-04-29T09:23:42;4.47;;;1.85;;
61322;SDS011;47203;48.428;11.974;2023-04-29T09:25:53;4.03;;;1.77;;
61322;SDS011;47203;48.428;11.974;2023-04-29T09:28:01;3.33;;;1.40;;
61322;SDS011;47203;48.428;11.974;2023-04-29T09:30:19;2.67;;;1.63;;
61322;SDS011;47203;48.428;11.974;2023-04-29T09:32:24;3.75;;;1.40;;
61322;SDS011;47203;48.428;11.974;2023-04-29T09:34:30;2.38;;;1.30;;
61322;SDS011;47203;48.428;11.974;2023-04-29T09:36:39;4.90;;;1.58;;
61322;SDS011;47203;48.428;11.974;2023-04-29T09:38:54;1.95;;;1.25;;
61322;SDS011;47203;48.428;11.974;2023-04-29T09:40:59;4.05;;;2.85;;
61322;SDS011;47203;48.428;11.974;2023-04-29T09:43:17;2.72;;;1.75;;
61322;SDS011;47203;48.428;11.974;2023-04-29T09:45:34;3.15;;;1.50;;
61322;SDS011;47203;48.428;11.974;2023-04-29T09:47:40;1.92;;;1.20;;
61322;SDS011;47203;48.428;11.974;2023-04-29T09:49:45;1.85;;;1.40;;
61322;SDS011;47203;48.428;11.974;2023-04-29T09:51:51;2.35;;;1.10;;
61322;SDS011;47203;48.428;11.974;2023-04-29T09:54:00;1.30;;;0.85;;
61322;SDS011;47203;48.428;11.974;2023-04-29T09:56:23;3.95;;;1.30;;
61322;SDS011;47203;48.428;11.974;2023-04-29T09:58:30;1.27;;;1.05;;
61322;SDS011;47203;48.428;11.974;2023-04-29T10:00:38;1.73;;;1.13;;
61322;SDS011;47203;48.428;11.974;2023-04-29T10:02:45;1.52;;;1.25;;
61322;SDS011;47203;48.428;11.974;2023-04-29T10:04:52;3.20;;;1.67;;
61322;SDS011;47203;48.428;11.974;2023-04-29T10:06:58;2.22;;;1.08;;
61322;SDS011;47203;48.428;11.974;2023-04-29T10:09:07;1.92;;;1.10;;
61322;SDS011;47203;48.428;11.974;2023-04-29T10:11:17;3.90;;;1.65;;
61322;SDS011;47203;48.428;11.974;2023-04-29T10:13:22;1.63;;;1.27;;
61322;SDS011;47203;48.428;11.974;2023-04-29T10:15:28;2.92;;;1.05;;
61322;SDS011;47203;48.428;11.974;2023-04-29T10:17:41;1.83;;;1.30;;
61322;SDS011;47203;48.428;11.974;2023-04-29T10:19:51;1.60;;;1.00;;
61322;SDS011;47203;48.428;11.974;2023-04-29T10:22:04;1.05;;;0.80;;
61322;SDS011;47203;48.428;11.974;2023-04-29T10:24:13;1.50;;;0.80;;
61322;SDS011;47203;48.428;11.974;2023-04-29T10:26:21;2.25;;;1.08;;
61322;SDS011;47203;48.428;11.974;2023-04-29T10:28:29;2.75;;;1.02;;
61322;SDS011;47203;48.428;11.974;2023-04-29T10:30:35;1.80;;;1.10;;
61322;SDS011;47203;48.428;11.974;2023-04-29T10:32:41;1.20;;;0.95;;
61322;SDS011;47203;48.428;11.974;2023-04-29T10:34:49;1.85;;;1.20;;
61322;SDS011;47203;48.428;11.974;2023-04-29T10:36:56;1.98;;;0.90;;
61322;SDS011;47203;48.428;11.974;2023-04-29T10:39:02;1.95;;;0.80;;
61322;SDS011;47203;48.428;11.974;2023-04-29T10:41:14;2.15;;;1.00;;
61322;SDS011;47203;48.428;11.974;2023-04-29T10:43:26;1.08;;;0.93;;
61322;SDS011;47203;48.428;11.974;2023-04-29T10:45:32;1.80;;;0.90;;
61322;SDS011;47203;48.428;11.974;2023-04-29T10:47:37;1.20;;;1.00;;
61322;SDS011;47203;48.428;11.974;2023-04-29T10:49:42;1.45;;;1.10;;
61322;SDS011;47203;48.428;11.974;2023-04-29T10:52:05;1.20;;;0.82;;
61322;SDS011;47203;48.428;11.974;2023-04-29T10:54:11;1.25;;;0.90;;
61322;SDS011;47203;48.428;11.974;2023-04-29T10:56:20;2.28;;;1.30;;
61322;SDS011;47203;48.428;11.974;2023-04-29T10:58:35;1.17;;;0.70;;
61322;SDS011;47203;48.428;11.974;2023-04-29T11:00:49;2.22;;;0.75;;
61322;SDS011;47203;48.428;11.974;2023-04-29T11:02:54;1.67;;;0.93;;
61322;SDS011;47203;48.428;11.974;2023-04-29T11:05:06;1.52;;;0.80;;
61322;SDS011;47203;48.428;11.974;2023-04-29T11:07:25;1.23;;;0.70;;
61322;SDS011;47203;48.428;11.974;2023-04-29T11:09:31;1.38;;;0.75;;
61322;SDS011;47203;48.428;11.974;2023-04-29T11:11:43;1.48;;;0.68;;
61322;SDS011;47203;48.428;11.974;2023-04-29T11:13:49;1.25;;;0.60;;
61322;SDS011;47203;48.428;11.974;2023-04-29T11:16:01;0.60;;;0.60;;
61322;SDS011;47203;48.428;11.974;2023-04-29T11:18:09;1.85;;;0.63;;
61322;SDS011;47203;48.428;11.974;2023-04-29T11:20:15;1.00;;;0.60;;
61322;SDS011;47203;48.428;11.974;2023-04-29T11:22:24;2.35;;;1.05;;
61322;SDS011;47203;48.428;11.974;2023-04-29T11:24:30;2.72;;;0.73;;
61322;SDS011;47203;48.428;11.974;2023-04-29T11:26:37;4.57;;;0.90;;
61322;SDS011;47203;48.428;11.974;2023-04-29T11:28:45;1.50;;;1.00;;
61322;SDS011;47203;48.428;11.974;2023-04-29T11:30:52;1.67;;;0.85;;
61322;SDS011;47203;48.428;11.974;2023-04-29T11:32:57;0.95;;;0.50;;
61322;SDS011;47203;48.428;11.974;2023-04-29T11:35:09;1.00;;;0.80;;
61322;SDS011;47203;48.428;11.974;2023-04-29T11:37:18;2.17;;;0.93;;
61322;SDS011;47203;48.428;11.974;2023-04-29T11:39:25;1.52;;;1.13;;
61322;SDS011;47203;48.428;11.974;2023-04-29T11:41:30;1.88;;;1.30;;
61322;SDS011;47203;48.428;11.974;2023-04-29T11:43:36;2.58;;;1.15;;
61322;SDS011;47203;48.428;11.974;2023-04-29T11:45:46;1.77;;;1.20;;
61322;SDS011;47203;48.428;11.974;2023-04-29T11:47:52;1.40;;;1.08;;
61322;SDS011;47203;48.428;11.974;2023-04-29T11:50:03;1.67;;;1.30;;
61322;SDS011;47203;48.428;11.974;2023-04-29T11:52:09;1.90;;;1.20;;
61322;SDS011;47203;48.428;11.974;2023-04-29T11:54:14;1.42;;;1.10;;
61322;SDS011;47203;48.428;11.974;2023-04-29T11:56:20;1.20;;;1.10;;
61322;SDS011;47203;48.428;11.974;2023-04-29T11:58:27;1.55;;;1.40;;
61322;SDS011;47203;48.428;11.974;2023-04-29T12:00:32;4.28;;;1.50;;
61322;SDS011;47203;48.428;11.974;2023-04-29T12:02:43;1.52;;;1.30;;
61322;SDS011;47203;48.428;11.974;2023-04-29T12:04:49;1.27;;;0.85;;
61322;SDS011;47203;48.428;11.974;2023-04-29T12:06:55;1.38;;;0.85;;
61322;SDS011;47203;48.428;11.974;2023-04-29T12:09:01;1.50;;;1.00;;
61322;SDS011;47203;48.428;11.974;2023-04-29T12:11:07;1.15;;;0.88;;
61322;SDS011;47203;48.428;11.974;2023-04-29T12:13:12;2.58;;;0.85;;
61322;SDS011;47203;48.428;11.974;2023-04-29T12:15:17;1.98;;;1.30;;
61322;SDS011;47203;48.428;11.974;2023-04-29T12:17:22;2.03;;;1.00;;
61322;SDS011;47203;48.428;11.974;2023-04-29T12:19:30;1.52;;;1.10;;
61322;SDS011;47203;48.428;11.974;2023-04-29T12:21:35;1.67;;;1.08;;
61322;SDS011;47203;48.428;11.974;2023-04-29T12:23:40;1.23;;;0.80;;
61322;SDS011;47203;48.428;11.974;2023-04-29T12:25:47;1.05;;;0.95;;
61322;SDS011;47203;48.428;11.974;2023-04-29T12:27:57;1.55;;;0.90;;
61322;SDS011;47203;48.428;11.974;2023-04-29T12:30:06;1.35;;;1.00;;
61322;SDS011;47203;48.428;11.974;2023-04-29T12:32:15;1.60;;;1.00;;
61322;SDS011;47203;48.428;11.974;2023-04-29T12:34:25;1.48;;;0.60;;
61322;SDS011;47203;48.428;11.974;2023-04-29T12:36:34;0.63;;;0.60;;
61322;SDS011;47203;48.428;11.974;2023-04-29T12:38:39;1.35;;;1.13;;
61322;SDS011;47203;48.428;11.974;2023-04-29T12:40:46;1.10;;;0.80;;